Portada
METAR-TAF:

METAR-TAF

Aeroports :

Spirit of St Louis Airport

Saint Louis, Missouri, Estats Units d'Amèrica

latitud: 38-39-26N, longitud: 090-39-21W, altitud: 141 m

Observació

L'informe es va fer fa 35 minuts, a les 00:54 UTC
Vent 5 kt del Sud
Temperatura 32°C
Humitat 56%
Pressió 1011 hPa
Visibilitat: 16.1 km
Cel clar

METAR: KSUS 250054Z 18005KT 10SM CLR 32/22 A2984 RMK AO2 SLP093 T03220222

Hora: 20:29 (01:29 UTC)

Pronòstic

L'informe es va fer fa 2 hores i 9 minuts, a les 23:20 UTC
Pronòstic vàlid del 25 a les 00 UTC al 25 a les 24 UTC
Vent 5 kt del Sud
Visibilitat: 10 km
Escasses núvols a una alçada de 60000 ft
A partir de les 25 a les 1400 UTC
Vent 7 kt del Sud-Oest
Visibilitat: 10 km
Escasses núvols a una alçada de 25000 ft

TAF: KSUS 242320Z 2500/2524 18005KT P6SM FEW600 FM251400 23007KT P6SM FEW250

Observacions i pronòstics meteorològics de més de 4000 aeroports (METAR i TAF).

Les estacions disponibles són els punts grocs i vermells al mapa.

Posi el ratolí al punt desitjat per veure el nom de l'estació.

Feu clic per veure les observacions i els pronòstics meteorològics.

Per canviar el mapa: feu clic els botons verds amb una creu de color negre per apropar; al botó verd amb un guió per allunyar la imatge; o en les fletxes verdes per a mapes adjacents.


METAR-TAF: